sensor_id;sensor_type;location;lat;lon;timestamp;P1;durP1;ratioP1;P2;durP2;ratioP2
62929;SDS011;49036;42.782;23.108;2022-11-18T07:09:29;26.95;;;9.20;;
62929;SDS011;49036;42.782;23.108;2022-11-18T07:11:55;30.52;;;11.85;;
62929;SDS011;49036;42.782;23.108;2022-11-18T07:14:21;45.28;;;15.73;;
62929;SDS011;49036;42.782;23.108;2022-11-18T07:16:46;56.78;;;20.77;;
62929;SDS011;49036;42.782;23.108;2022-11-18T07:19:12;33.33;;;16.05;;
62929;SDS011;49036;42.782;23.108;2022-11-18T07:21:38;27.92;;;7.32;;
62929;SDS011;49036;42.782;23.108;2022-11-18T07:24:06;23.40;;;6.80;;
62929;SDS011;49036;42.782;23.108;2022-11-18T07:26:33;15.18;;;5.40;;
62929;SDS011;49036;42.782;23.108;2022-11-18T07:29:00;10.63;;;5.28;;
62929;SDS011;49036;42.782;23.108;2022-11-18T07:31:26;23.20;;;7.22;;
62929;SDS011;49036;42.782;23.108;2022-11-18T07:33:52;19.60;;;6.65;;
62929;SDS011;49036;42.782;23.108;2022-11-18T07:36:20;12.63;;;5.93;;
62929;SDS011;49036;42.782;23.108;2022-11-18T07:38:47;12.20;;;5.72;;
62929;SDS011;49036;42.782;23.108;2022-11-18T07:41:16;12.43;;;5.95;;
62929;SDS011;49036;42.782;23.108;2022-11-18T07:43:44;7.40;;;5.45;;
62929;SDS011;49036;42.782;23.108;2022-11-18T07:46:10;11.45;;;7.00;;
62929;SDS011;49036;42.782;23.108;2022-11-18T07:48:42;18.50;;;6.97;;
62929;SDS011;49036;42.782;23.108;2022-11-18T07:51:09;12.05;;;6.10;;
62929;SDS011;49036;42.782;23.108;2022-11-18T07:56:01;8.68;;;5.45;;
62929;SDS011;49036;42.782;23.108;2022-11-18T07:58:27;11.70;;;6.35;;
62929;SDS011;49036;42.782;23.108;2022-11-18T08:00:53;51.08;;;23.80;;
62929;SDS011;49036;42.782;23.108;2022-11-18T08:03:18;43.90;;;21.52;;
62929;SDS011;49036;42.782;23.108;2022-11-18T08:08:09;32.17;;;15.75;;
62929;SDS011;49036;42.782;23.108;2022-11-18T08:13:01;39.67;;;10.05;;
62929;SDS011;49036;42.782;23.108;2022-11-18T08:15:26;17.35;;;8.05;;
62929;SDS011;49036;42.782;23.108;2022-11-18T08:17:53;24.52;;;8.63;;
62929;SDS011;49036;42.782;23.108;2022-11-18T08:22:44;21.77;;;8.63;;
62929;SDS011;49036;42.782;23.108;2022-11-18T08:25:10;25.60;;;11.45;;
62929;SDS011;49036;42.782;23.108;2022-11-18T08:30:01;22.85;;;10.88;;
62929;SDS011;49036;42.782;23.108;2022-11-18T08:32:27;15.88;;;8.80;;
62929;SDS011;49036;42.782;23.108;2022-11-18T08:34:53;18.52;;;10.52;;
62929;SDS011;49036;42.782;23.108;2022-11-18T08:39:44;24.73;;;11.77;;
62929;SDS011;49036;42.782;23.108;2022-11-18T08:42:09;24.77;;;13.10;;
62929;SDS011;49036;42.782;23.108;2022-11-18T08:47:00;18.25;;;10.38;;
62929;SDS011;49036;42.782;23.108;2022-11-18T08:51:52;17.75;;;8.77;;
62929;SDS011;49036;42.782;23.108;2022-11-18T08:54:18;15.57;;;9.35;;
62929;SDS011;49036;42.782;23.108;2022-11-18T08:56:44;11.98;;;7.35;;
62929;SDS011;49036;42.782;23.108;2022-11-18T09:01:35;13.60;;;7.28;;
62929;SDS011;49036;42.782;23.108;2022-11-18T09:04:02;15.43;;;8.00;;
62929;SDS011;49036;42.782;23.108;2022-11-18T09:06:28;15.52;;;10.02;;
62929;SDS011;49036;42.782;23.108;2022-11-18T09:08:53;17.10;;;9.05;;
62929;SDS011;49036;42.782;23.108;2022-11-18T09:13:46;17.65;;;10.23;;
62929;SDS011;49036;42.782;23.108;2022-11-18T09:16:15;22.17;;;11.30;;
62929;SDS011;49036;42.782;23.108;2022-11-18T09:18:41;21.52;;;11.15;;
62929;SDS011;49036;42.782;23.108;2022-11-18T09:23:34;26.70;;;14.05;;
62929;SDS011;49036;42.782;23.108;2022-11-18T09:26:01;26.85;;;12.32;;
62929;SDS011;49036;42.782;23.108;2022-11-18T09:28:30;21.42;;;12.05;;
62929;SDS011;49036;42.782;23.108;2022-11-18T09:33:21;17.10;;;9.88;;
62929;SDS011;49036;42.782;23.108;2022-11-18T09:35:47;19.88;;;10.27;;
62929;SDS011;49036;42.782;23.108;2022-11-18T09:38:13;19.77;;;12.15;;
62929;SDS011;49036;42.782;23.108;2022-11-18T09:40:49;20.80;;;12.70;;
62929;SDS011;49036;42.782;23.108;2022-11-18T09:43:20;21.38;;;12.85;;
62929;SDS011;49036;42.782;23.108;2022-11-18T09:46:12;22.73;;;11.50;;
62929;SDS011;49036;42.782;23.108;2022-11-18T09:48:56;35.88;;;17.02;;
62929;SDS011;49036;42.782;23.108;2022-11-18T09:51:40;27.65;;;15.40;;
62929;SDS011;49036;42.782;23.108;2022-11-18T09:54:17;45.30;;;19.58;;
62929;SDS011;49036;42.782;23.108;2022-11-18T09:56:50;45.97;;;19.88;;
62929;SDS011;49036;42.782;23.108;2022-11-18T09:59:17;47.28;;;19.85;;
62929;SDS011;49036;42.782;23.108;2022-11-18T10:01:45;42.80;;;19.50;;
62929;SDS011;49036;42.782;23.108;2022-11-18T10:04:17;40.80;;;21.33;;
62929;SDS011;49036;42.782;23.108;2022-11-18T10:06:46;44.72;;;21.27;;
62929;SDS011;49036;42.782;23.108;2022-11-18T10:15:07;57.95;;;21.70;;
62929;SDS011;49036;42.782;23.108;2022-11-18T10:20:48;51.58;;;22.13;;
62929;SDS011;49036;42.782;23.108;2022-11-18T10:23:21;44.35;;;21.10;;
62929;SDS011;49036;42.782;23.108;2022-11-18T10:25:53;43.08;;;20.95;;
62929;SDS011;49036;42.782;23.108;2022-11-18T10:28:23;45.72;;;22.48;;
62929;SDS011;49036;42.782;23.108;2022-11-18T10:30:53;39.22;;;19.90;;
62929;SDS011;49036;42.782;23.108;2022-11-18T10:33:27;31.23;;;16.92;;
62929;SDS011;49036;42.782;23.108;2022-11-18T10:36:38;10.57;;;6.10;;
62929;SDS011;49036;42.782;23.108;2022-11-18T10:38:41;5.97;;;3.50;;
62929;SDS011;49036;42.782;23.108;2022-11-18T10:41:11;5.22;;;2.67;;
62929;SDS011;49036;42.782;23.108;2022-11-18T10:43:47;6.25;;;3.28;;
62929;SDS011;49036;42.782;23.108;2022-11-18T10:46:25;5.38;;;3.72;;
62929;SDS011;49036;42.782;23.108;2022-11-18T10:51:37;10.43;;;4.82;;
62929;SDS011;49036;42.782;23.108;2022-11-18T10:54:08;4.72;;;3.00;;
62929;SDS011;49036;42.782;23.108;2022-11-18T10:59:20;6.05;;;4.43;;
62929;SDS011;49036;42.782;23.108;2022-11-18T11:05:02;10.68;;;4.00;;
62929;SDS011;49036;42.782;23.108;2022-11-18T11:07:40;6.28;;;2.88;;
62929;SDS011;49036;42.782;23.108;2022-11-18T11:15:05;6.18;;;2.95;;
62929;SDS011;49036;42.782;23.108;2022-11-18T11:17:58;4.72;;;2.58;;
62929;SDS011;49036;42.782;23.108;2022-11-18T11:20:43;3.72;;;2.47;;
62929;SDS011;49036;42.782;23.108;2022-11-18T11:23:09;2.80;;;1.80;;
62929;SDS011;49036;42.782;23.108;2022-11-18T11:28:27;3.17;;;2.08;;
62929;SDS011;49036;42.782;23.108;2022-11-18T11:36:08;5.18;;;1.75;;
62929;SDS011;49036;42.782;23.108;2022-11-18T11:38:58;3.33;;;1.73;;
62929;SDS011;49036;42.782;23.108;2022-11-18T11:50:22;6.20;;;2.13;;
62929;SDS011;49036;42.782;23.108;2022-11-18T11:55:50;2.47;;;2.20;;
62929;SDS011;49036;42.782;23.108;2022-11-18T11:58:57;3.78;;;2.38;;
62929;SDS011;49036;42.782;23.108;2022-11-18T12:01:48;2.90;;;2.30;;
62929;SDS011;49036;42.782;23.108;2022-11-18T12:07:18;3.90;;;2.33;;
62929;SDS011;49036;42.782;23.108;2022-11-18T12:09:50;2.28;;;1.55;;
62929;SDS011;49036;42.782;23.108;2022-11-18T12:12:32;3.08;;;2.55;;
62929;SDS011;49036;42.782;23.108;2022-11-18T12:17:53;3.00;;;1.58;;
62929;SDS011;49036;42.782;23.108;2022-11-18T12:20:37;4.30;;;2.08;;
62929;SDS011;49036;42.782;23.108;2022-11-18T12:23:14;2.88;;;1.60;;
62929;SDS011;49036;42.782;23.108;2022-11-18T12:28:21;5.90;;;2.25;;
62929;SDS011;49036;42.782;23.108;2022-11-18T12:33:59;3.60;;;2.28;;
62929;SDS011;49036;42.782;23.108;2022-11-18T12:36:32;4.55;;;1.65;;
62929;SDS011;49036;42.782;23.108;2022-11-18T12:44:47;4.30;;;2.17;;
62929;SDS011;49036;42.782;23.108;2022-11-18T12:47:15;6.00;;;1.73;;
62929;SDS011;49036;42.782;23.108;2022-11-18T12:50:10;3.75;;;1.83;;
62929;SDS011;49036;42.782;23.108;2022-11-18T12:55:03;3.60;;;1.52;;
62929;SDS011;49036;42.782;23.108;2022-11-18T12:57:40;1.90;;;1.50;;
62929;SDS011;49036;42.782;23.108;2022-11-18T13:00:16;8.38;;;1.70;;
62929;SDS011;49036;42.782;23.108;2022-11-18T13:02:55;6.05;;;1.75;;
62929;SDS011;49036;42.782;23.108;2022-11-18T13:05:23;4.82;;;2.00;;
62929;SDS011;49036;42.782;23.108;2022-11-18T13:07:51;2.47;;;1.77;;
62929;SDS011;49036;42.782;23.108;2022-11-18T13:13:20;6.05;;;2.15;;
62929;SDS011;49036;42.782;23.108;2022-11-18T13:15:47;2.70;;;1.45;;
62929;SDS011;49036;42.782;23.108;2022-11-18T13:18:32;6.97;;;2.13;;
62929;SDS011;49036;42.782;23.108;2022-11-18T13:20:59;4.22;;;1.63;;
62929;SDS011;49036;42.782;23.108;2022-11-18T13:23:45;5.78;;;2.97;;
62929;SDS011;49036;42.782;23.108;2022-11-18T13:26:18;4.07;;;1.60;;
62929;SDS011;49036;42.782;23.108;2022-11-18T13:29:15;4.47;;;1.65;;
62929;SDS011;49036;42.782;23.108;2022-11-18T13:32:06;1.50;;;1.40;;
62929;SDS011;49036;42.782;23.108;2022-11-18T13:34:45;2.17;;;1.48;;
62929;SDS011;49036;42.782;23.108;2022-11-18T13:37:14;3.17;;;1.55;;
62929;SDS011;49036;42.782;23.108;2022-11-18T13:39:43;2.78;;;1.58;;
62929;SDS011;49036;42.782;23.108;2022-11-18T13:44:58;2.58;;;1.63;;
62929;SDS011;49036;42.782;23.108;2022-11-18T13:52:37;2.80;;;1.80;;
62929;SDS011;49036;42.782;23.108;2022-11-18T13:55:28;5.25;;;1.63;;
62929;SDS011;49036;42.782;23.108;2022-11-18T14:00:27;9.32;;;3.67;;
62929;SDS011;49036;42.782;23.108;2022-11-18T14:02:58;2.53;;;2.00;;
62929;SDS011;49036;42.782;23.108;2022-11-18T14:05:27;11.15;;;4.05;;
62929;SDS011;49036;42.782;23.108;2022-11-18T14:07:54;7.60;;;3.80;;
62929;SDS011;49036;42.782;23.108;2022-11-18T14:10:40;7.53;;;4.00;;
62929;SDS011;49036;42.782;23.108;2022-11-18T14:13:18;5.75;;;2.20;;
62929;SDS011;49036;42.782;23.108;2022-11-18T14:15:48;3.53;;;1.67;;
62929;SDS011;49036;42.782;23.108;2022-11-18T14:18:18;2.28;;;1.80;;
62929;SDS011;49036;42.782;23.108;2022-11-18T14:20:51;3.95;;;1.77;;
62929;SDS011;49036;42.782;23.108;2022-11-18T14:23:29;3.10;;;2.00;;
62929;SDS011;49036;42.782;23.108;2022-11-18T14:26:00;3.28;;;2.13;;
62929;SDS011;49036;42.782;23.108;2022-11-18T14:28:30;3.58;;;2.10;;
62929;SDS011;49036;42.782;23.108;2022-11-18T14:34:04;9.13;;;4.10;;
62929;SDS011;49036;42.782;23.108;2022-11-18T14:36:49;13.05;;;5.13;;
62929;SDS011;49036;42.782;23.108;2022-11-18T14:39:28;6.93;;;2.75;;
62929;SDS011;49036;42.782;23.108;2022-11-18T14:41:55;7.93;;;3.72;;
62929;SDS011;49036;42.782;23.108;2022-11-18T14:44:23;5.88;;;1.90;;
62929;SDS011;49036;42.782;23.108;2022-11-18T14:46:51;5.25;;;1.40;;
62929;SDS011;49036;42.782;23.108;2022-11-18T14:49:22;3.25;;;2.10;;
62929;SDS011;49036;42.782;23.108;2022-11-18T14:51:52;2.53;;;1.52;;
62929;SDS011;49036;42.782;23.108;2022-11-18T14:54:19;3.10;;;1.50;;
62929;SDS011;49036;42.782;23.108;2022-11-18T14:56:47;5.65;;;2.45;;
62929;SDS011;49036;42.782;23.108;2022-11-18T14:59:15;5.55;;;2.42;;
62929;SDS011;49036;42.782;23.108;2022-11-18T15:01:43;5.57;;;2.22;;
62929;SDS011;49036;42.782;23.108;2022-11-18T15:04:09;4.95;;;2.05;;
62929;SDS011;49036;42.782;23.108;2022-11-18T15:06:35;4.97;;;1.77;;
62929;SDS011;49036;42.782;23.108;2022-11-18T15:09:01;2.67;;;1.80;;
62929;SDS011;49036;42.782;23.108;2022-11-18T15:11:28;2.30;;;1.90;;
62929;SDS011;49036;42.782;23.108;2022-11-18T15:16:20;3.55;;;1.90;;
62929;SDS011;49036;42.782;23.108;2022-11-18T15:18:48;7.45;;;2.20;;
62929;SDS011;49036;42.782;23.108;2022-11-18T15:21:16;8.52;;;2.25;;
62929;SDS011;49036;42.782;23.108;2022-11-18T15:23:42;2.90;;;1.80;;
62929;SDS011;49036;42.782;23.108;2022-11-18T15:28:40;2.13;;;1.92;;
62929;SDS011;49036;42.782;23.108;2022-11-18T15:33:32;4.35;;;1.90;;
62929;SDS011;49036;42.782;23.108;2022-11-18T15:38:23;4.35;;;1.90;;
62929;SDS011;49036;42.782;23.108;2022-11-18T15:43:14;3.78;;;2.58;;
62929;SDS011;49036;42.782;23.108;2022-11-18T15:45:41;6.63;;;2.35;;
62929;SDS011;49036;42.782;23.108;2022-11-18T15:50:33;5.38;;;2.00;;
62929;SDS011;49036;42.782;23.108;2022-11-18T15:52:58;3.22;;;1.95;;
62929;SDS011;49036;42.782;23.108;2022-11-18T15:57:49;5.60;;;1.60;;
62929;SDS011;49036;42.782;23.108;2022-11-18T16:00:15;2.80;;;2.47;;
62929;SDS011;49036;42.782;23.108;2022-11-18T16:02:41;3.10;;;2.25;;
62929;SDS011;49036;42.782;23.108;2022-11-18T16:07:32;6.43;;;2.78;;
62929;SDS011;49036;42.782;23.108;2022-11-18T16:12:42;3.75;;;1.98;;
62929;SDS011;49036;42.782;23.108;2022-11-18T16:15:10;11.40;;;2.58;;
62929;SDS011;49036;42.782;23.108;2022-11-18T16:17:55;4.47;;;1.70;;
62929;SDS011;49036;42.782;23.108;2022-11-18T16:20:21;6.00;;;2.30;;
62929;SDS011;49036;42.782;23.108;2022-11-18T16:25:12;2.92;;;1.85;;
62929;SDS011;49036;42.782;23.108;2022-11-18T16:30:04;5.13;;;3.60;;
62929;SDS011;49036;42.782;23.108;2022-11-18T16:32:30;6.03;;;3.20;;
62929;SDS011;49036;42.782;23.108;2022-11-18T16:37:22;3.95;;;3.08;;
62929;SDS011;49036;42.782;23.108;2022-11-18T16:42:13;5.43;;;2.97;;
62929;SDS011;49036;42.782;23.108;2022-11-18T16:47:05;3.38;;;2.47;;
62929;SDS011;49036;42.782;23.108;2022-11-18T16:49:31;3.53;;;2.67;;
62929;SDS011;49036;42.782;23.108;2022-11-18T16:51:57;6.07;;;3.30;;
62929;SDS011;49036;42.782;23.108;2022-11-18T16:56:52;6.05;;;2.30;;
62929;SDS011;49036;42.782;23.108;2022-11-18T16:59:20;7.78;;;2.75;;
62929;SDS011;49036;42.782;23.108;2022-11-18T17:01:47;4.97;;;2.60;;
62929;SDS011;49036;42.782;23.108;2022-11-18T17:04:14;8.77;;;3.05;;
62929;SDS011;49036;42.782;23.108;2022-11-18T17:09:06;7.35;;;2.60;;
62929;SDS011;49036;42.782;23.108;2022-11-18T17:11:32;3.63;;;1.92;;
62929;SDS011;49036;42.782;23.108;2022-11-18T17:13:58;5.68;;;2.92;;
62929;SDS011;49036;42.782;23.108;2022-11-18T17:18:53;6.45;;;2.15;;
62929;SDS011;49036;42.782;23.108;2022-11-18T17:21:23;2.45;;;2.20;;
62929;SDS011;49036;42.782;23.108;2022-11-18T17:23:49;4.70;;;2.35;;
62929;SDS011;49036;42.782;23.108;2022-11-18T17:26:16;2.75;;;1.90;;
62929;SDS011;49036;42.782;23.108;2022-11-18T17:28:44;3.47;;;2.25;;
62929;SDS011;49036;42.782;23.108;2022-11-18T17:33:37;3.22;;;2.05;;
62929;SDS011;49036;42.782;23.108;2022-11-18T17:36:04;4.82;;;2.47;;
62929;SDS011;49036;42.782;23.108;2022-11-18T17:38:36;5.43;;;2.80;;
62929;SDS011;49036;42.782;23.108;2022-11-18T17:41:03;3.90;;;2.72;;
62929;SDS011;49036;42.782;23.108;2022-11-18T17:43:29;2.45;;;1.90;;
62929;SDS011;49036;42.782;23.108;2022-11-18T17:45:56;3.53;;;2.05;;
62929;SDS011;49036;42.782;23.108;2022-11-18T17:48:23;6.05;;;2.05;;
62929;SDS011;49036;42.782;23.108;2022-11-18T17:50:50;5.03;;;2.33;;
62929;SDS011;49036;42.782;23.108;2022-11-18T17:55:42;3.33;;;2.35;;
62929;SDS011;49036;42.782;23.108;2022-11-18T17:58:08;4.65;;;1.90;;
62929;SDS011;49036;42.782;23.108;2022-11-18T18:00:35;6.90;;;2.63;;
62929;SDS011;49036;42.782;23.108;2022-11-18T18:03:02;5.05;;;2.35;;
62929;SDS011;49036;42.782;23.108;2022-11-18T18:05:29;3.55;;;2.00;;
62929;SDS011;49036;42.782;23.108;2022-11-18T18:10:20;3.90;;;2.40;;
62929;SDS011;49036;42.782;23.108;2022-11-18T18:15:30;2.20;;;2.00;;
62929;SDS011;49036;42.782;23.108;2022-11-18T18:20:21;4.05;;;1.70;;
62929;SDS011;49036;42.782;23.108;2022-11-18T18:25:12;2.00;;;1.75;;
62929;SDS011;49036;42.782;23.108;2022-11-18T18:30:04;3.17;;;2.10;;
62929;SDS011;49036;42.782;23.108;2022-11-18T18:32:31;4.78;;;2.63;;
62929;SDS011;49036;42.782;23.108;2022-11-18T18:37:22;3.05;;;2.00;;
62929;SDS011;49036;42.782;23.108;2022-11-18T18:42:13;7.18;;;2.75;;
62929;SDS011;49036;42.782;23.108;2022-11-18T18:47:22;4.80;;;2.10;;
62929;SDS011;49036;42.782;23.108;2022-11-18T18:52:14;8.85;;;2.58;;
62929;SDS011;49036;42.782;23.108;2022-11-18T18:54:39;4.45;;;2.65;;
62929;SDS011;49036;42.782;23.108;2022-11-18T18:57:05;5.32;;;2.78;;
62929;SDS011;49036;42.782;23.108;2022-11-18T18:59:31;9.13;;;2.22;;
62929;SDS011;49036;42.782;23.108;2022-11-18T19:01:57;6.53;;;3.13;;
62929;SDS011;49036;42.782;23.108;2022-11-18T19:04:23;6.10;;;2.40;;
62929;SDS011;49036;42.782;23.108;2022-11-18T19:09:15;2.97;;;2.17;;
62929;SDS011;49036;42.782;23.108;2022-11-18T19:11:41;5.25;;;2.88;;
62929;SDS011;49036;42.782;23.108;2022-11-18T19:14:25;3.75;;;2.60;;
62929;SDS011;49036;42.782;23.108;2022-11-18T19:16:53;3.42;;;2.17;;
62929;SDS011;49036;42.782;23.108;2022-11-18T19:19:23;4.82;;;2.25;;
62929;SDS011;49036;42.782;23.108;2022-11-18T19:22:09;4.72;;;2.67;;
62929;SDS011;49036;42.782;23.108;2022-11-18T19:24:36;4.15;;;2.60;;
62929;SDS011;49036;42.782;23.108;2022-11-18T19:29:28;3.55;;;2.83;;
62929;SDS011;49036;42.782;23.108;2022-11-18T19:34:19;2.63;;;2.42;;
62929;SDS011;49036;42.782;23.108;2022-11-18T19:39:10;6.40;;;2.42;;
62929;SDS011;49036;42.782;23.108;2022-11-18T19:44:02;7.85;;;3.28;;
62929;SDS011;49036;42.782;23.108;2022-11-18T19:46:30;6.68;;;2.95;;
62929;SDS011;49036;42.782;23.108;2022-11-18T19:48:56;5.20;;;3.15;;
62929;SDS011;49036;42.782;23.108;2022-11-18T19:51:22;5.05;;;2.72;;
62929;SDS011;49036;42.782;23.108;2022-11-18T19:53:48;8.00;;;3.83;;
62929;SDS011;49036;42.782;23.108;2022-11-18T19:56:15;5.07;;;3.53;;
62929;SDS011;49036;42.782;23.108;2022-11-18T19:58:44;7.25;;;4.10;;
62929;SDS011;49036;42.782;23.108;2022-11-18T20:01:12;6.57;;;3.58;;
62929;SDS011;49036;42.782;23.108;2022-11-18T20:03:47;6.00;;;3.38;;
62929;SDS011;49036;42.782;23.108;2022-11-18T20:06:14;3.22;;;2.70;;
62929;SDS011;49036;42.782;23.108;2022-11-18T20:08:40;8.40;;;3.90;;
62929;SDS011;49036;42.782;23.108;2022-11-18T20:11:08;10.32;;;4.25;;
62929;SDS011;49036;42.782;23.108;2022-11-18T20:13:35;12.57;;;5.07;;
62929;SDS011;49036;42.782;23.108;2022-11-18T20:16:03;8.20;;;4.72;;
62929;SDS011;49036;42.782;23.108;2022-11-18T20:18:33;6.43;;;4.15;;
62929;SDS011;49036;42.782;23.108;2022-11-18T20:21:01;7.38;;;4.32;;
62929;SDS011;49036;42.782;23.108;2022-11-18T20:23:32;5.25;;;4.07;;
62929;SDS011;49036;42.782;23.108;2022-11-18T20:26:05;9.40;;;4.85;;
62929;SDS011;49036;42.782;23.108;2022-11-18T20:28:36;9.80;;;4.65;;
62929;SDS011;49036;42.782;23.108;2022-11-18T20:31:03;7.35;;;4.70;;
62929;SDS011;49036;42.782;23.108;2022-11-18T20:33:33;7.93;;;5.22;;
62929;SDS011;49036;42.782;23.108;2022-11-18T20:36:06;5.55;;;4.15;;
62929;SDS011;49036;42.782;23.108;2022-11-18T20:38:34;7.57;;;3.58;;
62929;SDS011;49036;42.782;23.108;2022-11-18T20:41:05;5.30;;;3.95;;
62929;SDS011;49036;42.782;23.108;2022-11-18T20:43:34;8.63;;;4.65;;
62929;SDS011;49036;42.782;23.108;2022-11-18T20:46:01;6.50;;;3.63;;
62929;SDS011;49036;42.782;23.108;2022-11-18T20:48:29;5.85;;;2.97;;
62929;SDS011;49036;42.782;23.108;2022-11-18T20:51:08;6.32;;;3.15;;
62929;SDS011;49036;42.782;23.108;2022-11-18T20:53:37;4.63;;;2.67;;
62929;SDS011;49036;42.782;23.108;2022-11-18T20:56:09;3.38;;;2.72;;
62929;SDS011;49036;42.782;23.108;2022-11-18T20:58:39;4.45;;;2.30;;
62929;SDS011;49036;42.782;23.108;2022-11-18T21:03:35;2.58;;;1.83;;
62929;SDS011;49036;42.782;23.108;2022-11-18T21:06:05;4.00;;;1.85;;
62929;SDS011;49036;42.782;23.108;2022-11-18T21:08:31;2.40;;;1.73;;
62929;SDS011;49036;42.782;23.108;2022-11-18T21:11:00;4.85;;;2.95;;
62929;SDS011;49036;42.782;23.108;2022-11-18T21:13:29;4.00;;;3.30;;
62929;SDS011;49036;42.782;23.108;2022-11-18T21:16:14;4.35;;;2.97;;
62929;SDS011;49036;42.782;23.108;2022-11-18T21:18:40;4.90;;;3.33;;
62929;SDS011;49036;42.782;23.108;2022-11-18T21:23:53;3.20;;;2.33;;
62929;SDS011;49036;42.782;23.108;2022-11-18T21:26:19;9.40;;;2.80;;
62929;SDS011;49036;42.782;23.108;2022-11-18T21:28:46;4.55;;;2.85;;
62929;SDS011;49036;42.782;23.108;2022-11-18T21:31:13;5.07;;;2.78;;
62929;SDS011;49036;42.782;23.108;2022-11-18T21:33:39;5.72;;;3.83;;
62929;SDS011;49036;42.782;23.108;2022-11-18T21:36:05;3.70;;;2.80;;
62929;SDS011;49036;42.782;23.108;2022-11-18T21:41:03;3.80;;;2.42;;
62929;SDS011;49036;42.782;23.108;2022-11-18T21:43:31;4.93;;;3.13;;
62929;SDS011;49036;42.782;23.108;2022-11-18T21:46:01;2.95;;;2.13;;
62929;SDS011;49036;42.782;23.108;2022-11-18T21:48:28;3.33;;;2.90;;
62929;SDS011;49036;42.782;23.108;2022-11-18T21:53:20;3.60;;;2.70;;
62929;SDS011;49036;42.782;23.108;2022-11-18T21:55:45;3.13;;;2.38;;
62929;SDS011;49036;42.782;23.108;2022-11-18T21:58:11;2.72;;;2.17;;
62929;SDS011;49036;42.782;23.108;2022-11-18T22:00:37;3.03;;;2.40;;
62929;SDS011;49036;42.782;23.108;2022-11-18T22:05:28;3.08;;;2.22;;
62929;SDS011;49036;42.782;23.108;2022-11-18T22:07:54;2.20;;;2.00;;
62929;SDS011;49036;42.782;23.108;2022-11-18T22:10:19;3.78;;;2.42;;
62929;SDS011;49036;42.782;23.108;2022-11-18T22:12:45;3.38;;;2.00;;
62929;SDS011;49036;42.782;23.108;2022-11-18T22:15:13;2.28;;;1.65;;
62929;SDS011;49036;42.782;23.108;2022-11-18T22:17:39;2.28;;;2.00;;
62929;SDS011;49036;42.782;23.108;2022-11-18T22:20:05;3.35;;;2.33;;
62929;SDS011;49036;42.782;23.108;2022-11-18T22:22:31;5.70;;;2.25;;
62929;SDS011;49036;42.782;23.108;2022-11-18T22:24:56;2.53;;;1.98;;
62929;SDS011;49036;42.782;23.108;2022-11-18T22:27:22;3.33;;;1.92;;
62929;SDS011;49036;42.782;23.108;2022-11-18T22:32:13;2.72;;;2.03;;
62929;SDS011;49036;42.782;23.108;2022-11-18T22:34:39;2.60;;;1.30;;
62929;SDS011;49036;42.782;23.108;2022-11-18T22:37:04;1.50;;;1.40;;
62929;SDS011;49036;42.782;23.108;2022-11-18T22:41:56;1.52;;;1.42;;
62929;SDS011;49036;42.782;23.108;2022-11-18T22:44:39;1.52;;;1.33;;
62929;SDS011;49036;42.782;23.108;2022-11-18T22:47:05;1.30;;;1.20;;
62929;SDS011;49036;42.782;23.108;2022-11-18T22:51:56;1.38;;;1.10;;
62929;SDS011;49036;42.782;23.108;2022-11-18T22:54:22;1.20;;;1.00;;
62929;SDS011;49036;42.782;23.108;2022-11-18T22:59:13;1.33;;;1.23;;
62929;SDS011;49036;42.782;23.108;2022-11-18T23:01:39;5.00;;;1.58;;
62929;SDS011;49036;42.782;23.108;2022-11-18T23:04:05;1.88;;;1.40;;
62929;SDS011;49036;42.782;23.108;2022-11-18T23:06:31;1.02;;;1.02;;
62929;SDS011;49036;42.782;23.108;2022-11-18T23:08:57;1.70;;;1.20;;
62929;SDS011;49036;42.782;23.108;2022-11-18T23:11:23;1.38;;;0.95;;
62929;SDS011;49036;42.782;23.108;2022-11-18T23:14:08;0.65;;;0.65;;
62929;SDS011;49036;42.782;23.108;2022-11-18T23:16:37;1.08;;;1.02;;
62929;SDS011;49036;42.782;23.108;2022-11-18T23:19:05;2.30;;;1.15;;
62929;SDS011;49036;42.782;23.108;2022-11-18T23:21:33;1.52;;;1.35;;
62929;SDS011;49036;42.782;23.108;2022-11-18T23:26:24;3.95;;;1.52;;
62929;SDS011;49036;42.782;23.108;2022-11-18T23:28:50;1.92;;;1.52;;
62929;SDS011;49036;42.782;23.108;2022-11-18T23:31:17;2.72;;;1.67;;
62929;SDS011;49036;42.782;23.108;2022-11-18T23:33:44;2.03;;;1.33;;
62929;SDS011;49036;42.782;23.108;2022-11-18T23:36:11;1.98;;;1.52;;
62929;SDS011;49036;42.782;23.108;2022-11-18T23:38:39;3.75;;;1.73;;
62929;SDS011;49036;42.782;23.108;2022-11-18T23:41:06;1.98;;;1.50;;
62929;SDS011;49036;42.782;23.108;2022-11-18T23:43:33;1.80;;;0.80;;
62929;SDS011;49036;42.782;23.108;2022-11-18T23:48:25;2.63;;;0.70;;
62929;SDS011;49036;42.782;23.108;2022-11-18T23:50:54;1.17;;;0.70;;
62929;SDS011;49036;42.782;23.108;2022-11-18T23:53:25;0.35;;;0.35;;
62929;SDS011;49036;42.782;23.108;2022-11-18T23:55:51;0.43;;;0.40;;
62929;SDS011;49036;42.782;23.108;2022-11-18T23:58:18;0.30;;;0.30;;
